sensor_id;sensor_type;location;lat;lon;timestamp;P1;durP1;ratioP1;P2;durP2;ratioP2
71769;SDS011;66386;52.122;5.420;2023-02-22T00:01:32;27.88;;;10.82;;
71769;SDS011;66386;52.122;5.420;2023-02-22T00:04:12;24.77;;;9.80;;
71769;SDS011;66386;52.122;5.420;2023-02-22T00:06:41;25.33;;;9.98;;
71769;SDS011;66386;52.122;5.420;2023-02-22T00:09:07;19.93;;;9.60;;
71769;SDS011;66386;52.122;5.420;2023-02-22T00:11:35;21.70;;;9.80;;
71769;SDS011;66386;52.122;5.420;2023-02-22T00:14:03;20.05;;;8.43;;
71769;SDS011;66386;52.122;5.420;2023-02-22T00:16:30;23.30;;;8.93;;
71769;SDS011;66386;52.122;5.420;2023-02-22T00:18:56;24.92;;;8.95;;
71769;SDS011;66386;52.122;5.420;2023-02-22T00:21:23;24.37;;;9.27;;
71769;SDS011;66386;52.122;5.420;2023-02-22T00:23:49;21.13;;;9.13;;
71769;SDS011;66386;52.122;5.420;2023-02-22T00:26:20;22.35;;;8.70;;
71769;SDS011;66386;52.122;5.420;2023-02-22T00:28:50;18.67;;;8.20;;
71769;SDS011;66386;52.122;5.420;2023-02-22T00:31:18;19.55;;;8.02;;
71769;SDS011;66386;52.122;5.420;2023-02-22T00:33:46;22.23;;;8.97;;
71769;SDS011;66386;52.122;5.420;2023-02-22T00:36:13;20.27;;;8.95;;
71769;SDS011;66386;52.122;5.420;2023-02-22T00:38:39;19.75;;;8.10;;
71769;SDS011;66386;52.122;5.420;2023-02-22T00:41:07;21.42;;;8.98;;
71769;SDS011;66386;52.122;5.420;2023-02-22T00:43:33;21.88;;;8.90;;
71769;SDS011;66386;52.122;5.420;2023-02-22T00:46:00;19.03;;;8.37;;
71769;SDS011;66386;52.122;5.420;2023-02-22T00:48:27;21.92;;;8.65;;
71769;SDS011;66386;52.122;5.420;2023-02-22T00:50:53;19.00;;;7.68;;
71769;SDS011;66386;52.122;5.420;2023-02-22T00:53:23;20.70;;;8.65;;
71769;SDS011;66386;52.122;5.420;2023-02-22T00:55:51;22.45;;;8.93;;
71769;SDS011;66386;52.122;5.420;2023-02-22T00:58:19;21.30;;;8.27;;
71769;SDS011;66386;52.122;5.420;2023-02-22T01:00:45;20.83;;;8.43;;
71769;SDS011;66386;52.122;5.420;2023-02-22T01:03:14;19.55;;;8.93;;
71769;SDS011;66386;52.122;5.420;2023-02-22T01:05:43;20.23;;;8.35;;
71769;SDS011;66386;52.122;5.420;2023-02-22T01:08:10;24.35;;;9.55;;
71769;SDS011;66386;52.122;5.420;2023-02-22T01:10:38;21.03;;;8.20;;
71769;SDS011;66386;52.122;5.420;2023-02-22T01:13:06;23.17;;;8.40;;
71769;SDS011;66386;52.122;5.420;2023-02-22T01:15:35;19.42;;;8.63;;
71769;SDS011;66386;52.122;5.420;2023-02-22T01:18:03;22.77;;;9.73;;
71769;SDS011;66386;52.122;5.420;2023-02-22T01:20:30;20.23;;;8.43;;
71769;SDS011;66386;52.122;5.420;2023-02-22T01:22:59;19.67;;;8.33;;
71769;SDS011;66386;52.122;5.420;2023-02-22T01:25:29;20.45;;;8.43;;
71769;SDS011;66386;52.122;5.420;2023-02-22T01:27:57;20.63;;;8.65;;
71769;SDS011;66386;52.122;5.420;2023-02-22T01:30:26;21.33;;;9.05;;
71769;SDS011;66386;52.122;5.420;2023-02-22T01:32:55;19.92;;;8.05;;
71769;SDS011;66386;52.122;5.420;2023-02-22T01:35:24;19.70;;;8.90;;
71769;SDS011;66386;52.122;5.420;2023-02-22T01:37:53;21.20;;;9.07;;
71769;SDS011;66386;52.122;5.420;2023-02-22T01:40:24;19.95;;;8.88;;
71769;SDS011;66386;52.122;5.420;2023-02-22T01:42:56;21.08;;;8.82;;
71769;SDS011;66386;52.122;5.420;2023-02-22T01:48:14;20.10;;;9.07;;
71769;SDS011;66386;52.122;5.420;2023-02-22T01:50:47;19.38;;;9.20;;
71769;SDS011;66386;52.122;5.420;2023-02-22T01:53:19;18.27;;;7.55;;
71769;SDS011;66386;52.122;5.420;2023-02-22T01:55:49;20.45;;;8.55;;
71769;SDS011;66386;52.122;5.420;2023-02-22T01:58:18;21.92;;;8.77;;
71769;SDS011;66386;52.122;5.420;2023-02-22T02:00:46;16.73;;;7.50;;
71769;SDS011;66386;52.122;5.420;2023-02-22T02:03:15;20.08;;;8.68;;
71769;SDS011;66386;52.122;5.420;2023-02-22T02:05:45;17.92;;;8.32;;
71769;SDS011;66386;52.122;5.420;2023-02-22T02:08:34;17.75;;;8.25;;
71769;SDS011;66386;52.122;5.420;2023-02-22T02:11:03;19.17;;;8.30;;
71769;SDS011;66386;52.122;5.420;2023-02-22T02:13:34;20.13;;;8.77;;
71769;SDS011;66386;52.122;5.420;2023-02-22T02:16:01;20.88;;;8.55;;
71769;SDS011;66386;52.122;5.420;2023-02-22T02:18:27;22.33;;;8.55;;
71769;SDS011;66386;52.122;5.420;2023-02-22T02:32:15;26.95;;;11.05;;
71769;SDS011;66386;52.122;5.420;2023-02-22T02:42:46;23.73;;;9.30;;
71769;SDS011;66386;52.122;5.420;2023-02-22T02:45:22;25.15;;;10.48;;
71769;SDS011;66386;52.122;5.420;2023-02-22T02:47:55;21.02;;;9.20;;
71769;SDS011;66386;52.122;5.420;2023-02-22T02:50:28;21.45;;;9.60;;
71769;SDS011;66386;52.122;5.420;2023-02-22T02:53:03;24.97;;;9.80;;
71769;SDS011;66386;52.122;5.420;2023-02-22T02:55:33;23.70;;;10.02;;
71769;SDS011;66386;52.122;5.420;2023-02-22T02:58:03;28.02;;;11.13;;
71769;SDS011;66386;52.122;5.420;2023-02-22T03:00:32;26.40;;;11.07;;
71769;SDS011;66386;52.122;5.420;2023-02-22T03:06:00;25.47;;;10.10;;
71769;SDS011;66386;52.122;5.420;2023-02-22T03:12:26;30.30;;;11.23;;
71769;SDS011;66386;52.122;5.420;2023-02-22T03:18:46;29.27;;;11.15;;
71769;SDS011;66386;52.122;5.420;2023-02-22T03:24:23;28.65;;;10.23;;
71769;SDS011;66386;52.122;5.420;2023-02-22T03:27:03;26.90;;;10.63;;
71769;SDS011;66386;52.122;5.420;2023-02-22T03:29:35;29.92;;;10.38;;
71769;SDS011;66386;52.122;5.420;2023-02-22T03:32:06;28.30;;;10.45;;
71769;SDS011;66386;52.122;5.420;2023-02-22T03:34:41;30.50;;;11.90;;
71769;SDS011;66386;52.122;5.420;2023-02-22T03:37:13;29.02;;;11.27;;
71769;SDS011;66386;52.122;5.420;2023-02-22T03:39:43;31.85;;;12.13;;
71769;SDS011;66386;52.122;5.420;2023-02-22T03:42:22;32.80;;;12.35;;
71769;SDS011;66386;52.122;5.420;2023-02-22T03:44:52;28.52;;;10.52;;
71769;SDS011;66386;52.122;5.420;2023-02-22T03:47:31;26.77;;;11.13;;
71769;SDS011;66386;52.122;5.420;2023-02-22T03:50:04;34.60;;;11.95;;
71769;SDS011;66386;52.122;5.420;2023-02-22T03:52:35;30.08;;;11.55;;
71769;SDS011;66386;52.122;5.420;2023-02-22T03:55:03;29.67;;;11.30;;
71769;SDS011;66386;52.122;5.420;2023-02-22T03:57:36;29.20;;;12.13;;
71769;SDS011;66386;52.122;5.420;2023-02-22T04:00:07;34.10;;;12.03;;
71769;SDS011;66386;52.122;5.420;2023-02-22T04:02:36;33.30;;;12.10;;
71769;SDS011;66386;52.122;5.420;2023-02-22T04:05:03;32.47;;;12.25;;
71769;SDS011;66386;52.122;5.420;2023-02-22T04:07:29;34.30;;;10.77;;
71769;SDS011;66386;52.122;5.420;2023-02-22T04:09:56;30.55;;;11.35;;
71769;SDS011;66386;52.122;5.420;2023-02-22T04:12:22;34.90;;;12.87;;
71769;SDS011;66386;52.122;5.420;2023-02-22T04:14:48;30.98;;;11.70;;
71769;SDS011;66386;52.122;5.420;2023-02-22T04:17:15;28.15;;;10.10;;
71769;SDS011;66386;52.122;5.420;2023-02-22T04:19:41;34.58;;;12.30;;
71769;SDS011;66386;52.122;5.420;2023-02-22T04:22:10;33.53;;;12.30;;
71769;SDS011;66386;52.122;5.420;2023-02-22T04:24:37;29.27;;;11.20;;
71769;SDS011;66386;52.122;5.420;2023-02-22T04:27:03;33.35;;;12.27;;
71769;SDS011;66386;52.122;5.420;2023-02-22T04:29:29;30.05;;;12.23;;
71769;SDS011;66386;52.122;5.420;2023-02-22T04:31:56;28.55;;;11.82;;
71769;SDS011;66386;52.122;5.420;2023-02-22T04:34:22;31.23;;;10.95;;
71769;SDS011;66386;52.122;5.420;2023-02-22T04:36:49;34.27;;;12.00;;
71769;SDS011;66386;52.122;5.420;2023-02-22T04:39:15;33.95;;;12.27;;
71769;SDS011;66386;52.122;5.420;2023-02-22T04:41:42;34.97;;;12.57;;
71769;SDS011;66386;52.122;5.420;2023-02-22T04:44:08;34.53;;;12.80;;
71769;SDS011;66386;52.122;5.420;2023-02-22T04:46:35;32.25;;;11.85;;
71769;SDS011;66386;52.122;5.420;2023-02-22T04:49:01;34.80;;;11.80;;
71769;SDS011;66386;52.122;5.420;2023-02-22T04:51:28;31.10;;;12.25;;
71769;SDS011;66386;52.122;5.420;2023-02-22T04:53:55;30.33;;;11.90;;
71769;SDS011;66386;52.122;5.420;2023-02-22T04:56:21;33.35;;;11.35;;
71769;SDS011;66386;52.122;5.420;2023-02-22T04:58:48;29.70;;;10.05;;
71769;SDS011;66386;52.122;5.420;2023-02-22T05:01:15;32.63;;;12.37;;
71769;SDS011;66386;52.122;5.420;2023-02-22T05:03:42;34.50;;;11.50;;
71769;SDS011;66386;52.122;5.420;2023-02-22T05:06:09;31.85;;;11.55;;
71769;SDS011;66386;52.122;5.420;2023-02-22T05:08:37;35.30;;;12.07;;
71769;SDS011;66386;52.122;5.420;2023-02-22T05:11:04;36.30;;;12.27;;
71769;SDS011;66386;52.122;5.420;2023-02-22T05:13:31;33.23;;;11.73;;
71769;SDS011;66386;52.122;5.420;2023-02-22T05:15:57;33.75;;;12.07;;
71769;SDS011;66386;52.122;5.420;2023-02-22T05:18:24;37.92;;;12.75;;
71769;SDS011;66386;52.122;5.420;2023-02-22T05:20:50;38.33;;;12.77;;
71769;SDS011;66386;52.122;5.420;2023-02-22T05:23:17;33.45;;;11.93;;
71769;SDS011;66386;52.122;5.420;2023-02-22T05:25:44;35.07;;;11.93;;
71769;SDS011;66386;52.122;5.420;2023-02-22T05:28:12;39.83;;;13.63;;
71769;SDS011;66386;52.122;5.420;2023-02-22T05:30:40;37.28;;;13.02;;
71769;SDS011;66386;52.122;5.420;2023-02-22T05:33:07;36.00;;;12.63;;
71769;SDS011;66386;52.122;5.420;2023-02-22T05:35:34;41.13;;;12.75;;
71769;SDS011;66386;52.122;5.420;2023-02-22T05:38:02;39.40;;;12.73;;
71769;SDS011;66386;52.122;5.420;2023-02-22T05:40:30;34.63;;;11.70;;
71769;SDS011;66386;52.122;5.420;2023-02-22T05:42:57;42.33;;;13.75;;
71769;SDS011;66386;52.122;5.420;2023-02-22T05:45:25;41.13;;;13.57;;
71769;SDS011;66386;52.122;5.420;2023-02-22T05:47:52;37.58;;;13.88;;
71769;SDS011;66386;52.122;5.420;2023-02-22T05:50:19;37.60;;;12.33;;
71769;SDS011;66386;52.122;5.420;2023-02-22T05:52:46;47.45;;;13.35;;
71769;SDS011;66386;52.122;5.420;2023-02-22T05:55:15;39.33;;;13.20;;
71769;SDS011;66386;52.122;5.420;2023-02-22T05:57:43;40.88;;;13.93;;
71769;SDS011;66386;52.122;5.420;2023-02-22T06:00:10;44.58;;;13.30;;
71769;SDS011;66386;52.122;5.420;2023-02-22T06:02:43;42.10;;;13.87;;
71769;SDS011;66386;52.122;5.420;2023-02-22T06:05:10;45.80;;;13.85;;
71769;SDS011;66386;52.122;5.420;2023-02-22T06:07:36;44.63;;;14.70;;
71769;SDS011;66386;52.122;5.420;2023-02-22T06:10:03;44.72;;;14.63;;
71769;SDS011;66386;52.122;5.420;2023-02-22T06:12:30;45.90;;;13.98;;
71769;SDS011;66386;52.122;5.420;2023-02-22T06:14:56;51.00;;;15.70;;
71769;SDS011;66386;52.122;5.420;2023-02-22T06:17:23;45.72;;;13.82;;
71769;SDS011;66386;52.122;5.420;2023-02-22T06:19:49;44.33;;;15.02;;
71769;SDS011;66386;52.122;5.420;2023-02-22T06:22:17;47.20;;;13.90;;
71769;SDS011;66386;52.122;5.420;2023-02-22T06:24:44;42.20;;;14.75;;
71769;SDS011;66386;52.122;5.420;2023-02-22T06:27:10;46.90;;;15.97;;
71769;SDS011;66386;52.122;5.420;2023-02-22T06:29:37;49.55;;;15.18;;
71769;SDS011;66386;52.122;5.420;2023-02-22T06:32:04;54.17;;;15.55;;
71769;SDS011;66386;52.122;5.420;2023-02-22T06:34:30;47.20;;;15.27;;
71769;SDS011;66386;52.122;5.420;2023-02-22T06:36:57;43.95;;;13.75;;
71769;SDS011;66386;52.122;5.420;2023-02-22T06:39:25;44.43;;;13.70;;
71769;SDS011;66386;52.122;5.420;2023-02-22T06:41:51;45.15;;;13.85;;
71769;SDS011;66386;52.122;5.420;2023-02-22T06:44:20;46.28;;;13.48;;
71769;SDS011;66386;52.122;5.420;2023-02-22T06:46:47;41.70;;;12.95;;
71769;SDS011;66386;52.122;5.420;2023-02-22T06:49:17;49.55;;;14.80;;
71769;SDS011;66386;52.122;5.420;2023-02-22T06:51:45;43.00;;;14.90;;
71769;SDS011;66386;52.122;5.420;2023-02-22T06:54:12;57.13;;;16.48;;
71769;SDS011;66386;52.122;5.420;2023-02-22T06:56:39;45.65;;;15.07;;
71769;SDS011;66386;52.122;5.420;2023-02-22T06:59:06;47.85;;;14.90;;
71769;SDS011;66386;52.122;5.420;2023-02-22T07:01:33;45.65;;;14.48;;
71769;SDS011;66386;52.122;5.420;2023-02-22T07:04:00;46.53;;;13.77;;
71769;SDS011;66386;52.122;5.420;2023-02-22T07:06:27;49.40;;;16.08;;
71769;SDS011;66386;52.122;5.420;2023-02-22T07:08:53;50.35;;;15.77;;
71769;SDS011;66386;52.122;5.420;2023-02-22T07:11:20;48.42;;;15.25;;
71769;SDS011;66386;52.122;5.420;2023-02-22T07:13:46;47.90;;;15.25;;
71769;SDS011;66386;52.122;5.420;2023-02-22T07:16:12;45.47;;;14.20;;
71769;SDS011;66386;52.122;5.420;2023-02-22T07:18:39;53.40;;;15.57;;
71769;SDS011;66386;52.122;5.420;2023-02-22T07:21:05;48.20;;;15.38;;
71769;SDS011;66386;52.122;5.420;2023-02-22T07:23:32;47.28;;;13.93;;
71769;SDS011;66386;52.122;5.420;2023-02-22T07:25:59;50.05;;;14.00;;
71769;SDS011;66386;52.122;5.420;2023-02-22T07:28:27;42.53;;;14.27;;
71769;SDS011;66386;52.122;5.420;2023-02-22T07:30:53;43.80;;;14.27;;
71769;SDS011;66386;52.122;5.420;2023-02-22T07:33:20;44.10;;;13.57;;
71769;SDS011;66386;52.122;5.420;2023-02-22T07:35:47;44.90;;;14.13;;
71769;SDS011;66386;52.122;5.420;2023-02-22T07:38:16;51.40;;;14.60;;
71769;SDS011;66386;52.122;5.420;2023-02-22T07:40:44;44.63;;;14.67;;
71769;SDS011;66386;52.122;5.420;2023-02-22T07:43:13;47.47;;;15.35;;
71769;SDS011;66386;52.122;5.420;2023-02-22T07:45:41;57.20;;;15.35;;
71769;SDS011;66386;52.122;5.420;2023-02-22T07:48:08;48.28;;;15.50;;
71769;SDS011;66386;52.122;5.420;2023-02-22T07:50:37;42.17;;;15.82;;
71769;SDS011;66386;52.122;5.420;2023-02-22T07:53:06;50.17;;;15.03;;
71769;SDS011;66386;52.122;5.420;2023-02-22T07:55:36;43.78;;;15.30;;
71769;SDS011;66386;52.122;5.420;2023-02-22T07:58:05;43.00;;;14.27;;
71769;SDS011;66386;52.122;5.420;2023-02-22T08:00:34;41.30;;;13.60;;
71769;SDS011;66386;52.122;5.420;2023-02-22T08:03:03;41.42;;;14.80;;
71769;SDS011;66386;52.122;5.420;2023-02-22T08:05:34;40.90;;;14.57;;
71769;SDS011;66386;52.122;5.420;2023-02-22T08:08:02;41.42;;;13.20;;
71769;SDS011;66386;52.122;5.420;2023-02-22T08:10:31;40.15;;;12.98;;
71769;SDS011;66386;52.122;5.420;2023-02-22T08:13:00;43.13;;;14.98;;
71769;SDS011;66386;52.122;5.420;2023-02-22T08:15:31;41.53;;;14.05;;
71769;SDS011;66386;52.122;5.420;2023-02-22T08:18:03;41.77;;;14.07;;
71769;SDS011;66386;52.122;5.420;2023-02-22T08:20:35;39.20;;;12.43;;
71769;SDS011;66386;52.122;5.420;2023-02-22T08:23:03;40.67;;;13.82;;
71769;SDS011;66386;52.122;5.420;2023-02-22T08:25:31;38.80;;;14.00;;
71769;SDS011;66386;52.122;5.420;2023-02-22T08:28:04;35.85;;;13.40;;
71769;SDS011;66386;52.122;5.420;2023-02-22T08:30:33;36.73;;;12.80;;
71769;SDS011;66386;52.122;5.420;2023-02-22T08:33:05;35.13;;;12.75;;
71769;SDS011;66386;52.122;5.420;2023-02-22T08:35:32;35.28;;;13.13;;
71769;SDS011;66386;52.122;5.420;2023-02-22T08:38:04;37.90;;;12.88;;
71769;SDS011;66386;52.122;5.420;2023-02-22T08:40:33;38.15;;;13.30;;
71769;SDS011;66386;52.122;5.420;2023-02-22T08:43:02;36.90;;;12.97;;
71769;SDS011;66386;52.122;5.420;2023-02-22T08:45:29;36.75;;;11.25;;
71769;SDS011;66386;52.122;5.420;2023-02-22T08:47:56;24.65;;;11.43;;
71769;SDS011;66386;52.122;5.420;2023-02-22T08:50:25;34.28;;;12.52;;
71769;SDS011;66386;52.122;5.420;2023-02-22T08:52:54;26.75;;;11.13;;
71769;SDS011;66386;52.122;5.420;2023-02-22T08:55:25;25.10;;;10.57;;
71769;SDS011;66386;52.122;5.420;2023-02-22T08:57:54;24.77;;;9.70;;
71769;SDS011;66386;52.122;5.420;2023-02-22T09:00:21;29.35;;;11.75;;
71769;SDS011;66386;52.122;5.420;2023-02-22T09:02:51;29.92;;;12.18;;
71769;SDS011;66386;52.122;5.420;2023-02-22T09:05:18;32.33;;;12.52;;
71769;SDS011;66386;52.122;5.420;2023-02-22T09:07:45;27.03;;;11.80;;
71769;SDS011;66386;52.122;5.420;2023-02-22T09:10:12;28.80;;;11.82;;
71769;SDS011;66386;52.122;5.420;2023-02-22T09:12:41;29.58;;;11.48;;
71769;SDS011;66386;52.122;5.420;2023-02-22T09:15:08;30.83;;;11.95;;
71769;SDS011;66386;52.122;5.420;2023-02-22T09:17:35;29.13;;;11.73;;
71769;SDS011;66386;52.122;5.420;2023-02-22T09:20:03;29.40;;;12.17;;
71769;SDS011;66386;52.122;5.420;2023-02-22T09:22:31;32.47;;;12.63;;
71769;SDS011;66386;52.122;5.420;2023-02-22T09:24:58;29.10;;;12.27;;
71769;SDS011;66386;52.122;5.420;2023-02-22T09:27:32;30.85;;;12.70;;
71769;SDS011;66386;52.122;5.420;2023-02-22T09:29:59;27.75;;;10.70;;
71769;SDS011;66386;52.122;5.420;2023-02-22T09:32:25;32.67;;;13.07;;
71769;SDS011;66386;52.122;5.420;2023-02-22T09:34:53;28.92;;;12.55;;
71769;SDS011;66386;52.122;5.420;2023-02-22T09:37:20;28.58;;;12.15;;
71769;SDS011;66386;52.122;5.420;2023-02-22T09:39:47;28.77;;;11.82;;
71769;SDS011;66386;52.122;5.420;2023-02-22T09:42:33;32.13;;;12.73;;
71769;SDS011;66386;52.122;5.420;2023-02-22T09:45:05;29.73;;;11.77;;
71769;SDS011;66386;52.122;5.420;2023-02-22T09:47:39;28.50;;;10.70;;
71769;SDS011;66386;52.122;5.420;2023-02-22T09:50:14;30.50;;;11.98;;
71769;SDS011;66386;52.122;5.420;2023-02-22T09:58:33;24.00;;;10.97;;
71769;SDS011;66386;52.122;5.420;2023-02-22T10:06:36;27.20;;;12.07;;
71769;SDS011;66386;52.122;5.420;2023-02-22T10:09:08;29.38;;;11.48;;
71769;SDS011;66386;52.122;5.420;2023-02-22T10:11:40;30.57;;;12.27;;
71769;SDS011;66386;52.122;5.420;2023-02-22T10:23:07;28.98;;;12.10;;
71769;SDS011;66386;52.122;5.420;2023-02-22T10:25:42;26.23;;;11.53;;
71769;SDS011;66386;52.122;5.420;2023-02-22T10:28:12;25.02;;;11.35;;
71769;SDS011;66386;52.122;5.420;2023-02-22T10:30:51;26.60;;;11.35;;
71769;SDS011;66386;52.122;5.420;2023-02-22T10:33:31;27.23;;;11.18;;
71769;SDS011;66386;52.122;5.420;2023-02-22T10:36:01;26.55;;;11.45;;
71769;SDS011;66386;52.122;5.420;2023-02-22T10:38:29;25.10;;;11.13;;
71769;SDS011;66386;52.122;5.420;2023-02-22T10:41:00;22.33;;;11.07;;
71769;SDS011;66386;52.122;5.420;2023-02-22T10:43:35;25.42;;;11.07;;
71769;SDS011;66386;52.122;5.420;2023-02-22T10:46:03;24.80;;;11.93;;
71769;SDS011;66386;52.122;5.420;2023-02-22T10:48:33;27.23;;;11.77;;
71769;SDS011;66386;52.122;5.420;2023-02-22T10:51:04;25.33;;;10.97;;
71769;SDS011;66386;52.122;5.420;2023-02-22T10:53:34;28.90;;;12.02;;
71769;SDS011;66386;52.122;5.420;2023-02-22T11:03:58;27.03;;;11.63;;
71769;SDS011;66386;52.122;5.420;2023-02-22T11:06:32;25.30;;;11.68;;
71769;SDS011;66386;52.122;5.420;2023-02-22T11:09:04;28.08;;;11.70;;
71769;SDS011;66386;52.122;5.420;2023-02-22T11:11:35;24.05;;;10.98;;
71769;SDS011;66386;52.122;5.420;2023-02-22T11:14:03;25.15;;;10.95;;
71769;SDS011;66386;52.122;5.420;2023-02-22T11:16:33;23.00;;;10.83;;
71769;SDS011;66386;52.122;5.420;2023-02-22T11:19:09;24.42;;;11.75;;
71769;SDS011;66386;52.122;5.420;2023-02-22T11:21:50;28.90;;;11.23;;
71769;SDS011;66386;52.122;5.420;2023-02-22T11:24:19;26.10;;;11.95;;
71769;SDS011;66386;52.122;5.420;2023-02-22T11:27:24;27.00;;;11.73;;
71769;SDS011;66386;52.122;5.420;2023-02-22T11:30:04;24.10;;;10.50;;
71769;SDS011;66386;52.122;5.420;2023-02-22T11:32:35;29.00;;;11.43;;
71769;SDS011;66386;52.122;5.420;2023-02-22T11:35:16;26.13;;;11.43;;
71769;SDS011;66386;52.122;5.420;2023-02-22T11:38:08;27.23;;;11.57;;
71769;SDS011;66386;52.122;5.420;2023-02-22T11:40:41;28.08;;;11.07;;
71769;SDS011;66386;52.122;5.420;2023-02-22T11:43:13;28.40;;;11.13;;
71769;SDS011;66386;52.122;5.420;2023-02-22T11:45:55;28.13;;;11.55;;
71769;SDS011;66386;52.122;5.420;2023-02-22T11:48:29;24.90;;;11.73;;
71769;SDS011;66386;52.122;5.420;2023-02-22T11:57:38;29.63;;;12.10;;
71769;SDS011;66386;52.122;5.420;2023-02-22T12:11:16;29.80;;;11.73;;
71769;SDS011;66386;52.122;5.420;2023-02-22T12:14:08;28.35;;;10.90;;
71769;SDS011;66386;52.122;5.420;2023-02-22T12:16:41;28.90;;;10.93;;
71769;SDS011;66386;52.122;5.420;2023-02-22T12:22:00;33.80;;;11.95;;
71769;SDS011;66386;52.122;5.420;2023-02-22T12:24:34;32.57;;;11.37;;
71769;SDS011;66386;52.122;5.420;2023-02-22T12:27:09;28.80;;;11.65;;
71769;SDS011;66386;52.122;5.420;2023-02-22T12:29:42;30.23;;;11.98;;
71769;SDS011;66386;52.122;5.420;2023-02-22T12:32:18;22.95;;;9.88;;
71769;SDS011;66386;52.122;5.420;2023-02-22T12:34:50;30.42;;;12.18;;
71769;SDS011;66386;52.122;5.420;2023-02-22T12:39:59;30.60;;;12.38;;
71769;SDS011;66386;52.122;5.420;2023-02-22T12:45:47;25.88;;;11.25;;
71769;SDS011;66386;52.122;5.420;2023-02-22T12:48:34;25.73;;;10.18;;
71769;SDS011;66386;52.122;5.420;2023-02-22T12:51:30;27.93;;;11.67;;
71769;SDS011;66386;52.122;5.420;2023-02-22T13:02:24;27.17;;;11.27;;
71769;SDS011;66386;52.122;5.420;2023-02-22T13:04:54;26.50;;;11.33;;
71769;SDS011;66386;52.122;5.420;2023-02-22T13:07:27;24.85;;;10.93;;
71769;SDS011;66386;52.122;5.420;2023-02-22T13:10:28;24.50;;;11.18;;
71769;SDS011;66386;52.122;5.420;2023-02-22T13:13:31;25.00;;;11.13;;
71769;SDS011;66386;52.122;5.420;2023-02-22T13:16:20;27.38;;;11.65;;
71769;SDS011;66386;52.122;5.420;2023-02-22T13:21:44;28.38;;;12.00;;
71769;SDS011;66386;52.122;5.420;2023-02-22T13:25:05;25.08;;;11.55;;
71769;SDS011;66386;52.122;5.420;2023-02-22T13:27:32;22.98;;;9.98;;
71769;SDS011;66386;52.122;5.420;2023-02-22T13:30:04;26.40;;;11.40;;
71769;SDS011;66386;52.122;5.420;2023-02-22T13:32:51;25.70;;;10.67;;
71769;SDS011;66386;52.122;5.420;2023-02-22T13:35:29;26.17;;;10.43;;
71769;SDS011;66386;52.122;5.420;2023-02-22T13:38:22;23.75;;;11.90;;
71769;SDS011;66386;52.122;5.420;2023-02-22T13:41:26;25.67;;;11.30;;
71769;SDS011;66386;52.122;5.420;2023-02-22T13:50:22;25.83;;;10.82;;
71769;SDS011;66386;52.122;5.420;2023-02-22T13:52:59;23.23;;;11.02;;
71769;SDS011;66386;52.122;5.420;2023-02-22T13:55:30;22.85;;;11.07;;
71769;SDS011;66386;52.122;5.420;2023-02-22T13:58:00;23.33;;;10.90;;
71769;SDS011;66386;52.122;5.420;2023-02-22T14:13:18;21.73;;;9.97;;
71769;SDS011;66386;52.122;5.420;2023-02-22T14:18:37;19.20;;;10.30;;
71769;SDS011;66386;52.122;5.420;2023-02-22T14:21:11;20.38;;;10.13;;
71769;SDS011;66386;52.122;5.420;2023-02-22T14:23:46;22.15;;;11.05;;
71769;SDS011;66386;52.122;5.420;2023-02-22T14:31:29;22.90;;;10.98;;
71769;SDS011;66386;52.122;5.420;2023-02-22T14:34:10;20.58;;;10.30;;
71769;SDS011;66386;52.122;5.420;2023-02-22T14:40:15;21.80;;;11.07;;
71769;SDS011;66386;52.122;5.420;2023-02-22T14:42:30;18.20;;;10.20;;
71769;SDS011;66386;52.122;5.420;2023-02-22T14:45:18;20.08;;;10.70;;
71769;SDS011;66386;52.122;5.420;2023-02-22T14:56:04;21.67;;;10.15;;
71769;SDS011;66386;52.122;5.420;2023-02-22T14:58:39;18.88;;;9.55;;
71769;SDS011;66386;52.122;5.420;2023-02-22T15:01:32;20.58;;;10.23;;
71769;SDS011;66386;52.122;5.420;2023-02-22T15:04:27;21.55;;;10.05;;
71769;SDS011;66386;52.122;5.420;2023-02-22T15:06:59;17.93;;;9.43;;
71769;SDS011;66386;52.122;5.420;2023-02-22T15:09:33;19.88;;;10.32;;
71769;SDS011;66386;52.122;5.420;2023-02-22T15:14:33;19.42;;;10.63;;
71769;SDS011;66386;52.122;5.420;2023-02-22T15:17:08;20.23;;;10.10;;
71769;SDS011;66386;52.122;5.420;2023-02-22T15:19:41;16.67;;;9.77;;
71769;SDS011;66386;52.122;5.420;2023-02-22T15:22:21;16.20;;;9.90;;
71769;SDS011;66386;52.122;5.420;2023-02-22T15:24:55;16.63;;;10.20;;
71769;SDS011;66386;52.122;5.420;2023-02-22T15:27:26;16.20;;;9.63;;
71769;SDS011;66386;52.122;5.420;2023-02-22T15:29:58;20.42;;;8.93;;
71769;SDS011;66386;52.122;5.420;2023-02-22T15:32:31;18.47;;;10.13;;
71769;SDS011;66386;52.122;5.420;2023-02-22T15:35:44;17.25;;;9.38;;
71769;SDS011;66386;52.122;5.420;2023-02-22T15:37:57;17.55;;;9.85;;
71769;SDS011;66386;52.122;5.420;2023-02-22T15:40:27;18.20;;;10.20;;
71769;SDS011;66386;52.122;5.420;2023-02-22T15:43:01;17.38;;;10.15;;
71769;SDS011;66386;52.122;5.420;2023-02-22T15:45:30;17.37;;;9.20;;
71769;SDS011;66386;52.122;5.420;2023-02-22T15:47:57;18.13;;;10.38;;
71769;SDS011;66386;52.122;5.420;2023-02-22T15:50:25;19.50;;;11.10;;
71769;SDS011;66386;52.122;5.420;2023-02-22T15:52:56;17.30;;;9.18;;
71769;SDS011;66386;52.122;5.420;2023-02-22T15:55:26;19.33;;;10.45;;
71769;SDS011;66386;52.122;5.420;2023-02-22T15:57:54;23.23;;;10.50;;
71769;SDS011;66386;52.122;5.420;2023-02-22T16:00:24;18.38;;;10.27;;
71769;SDS011;66386;52.122;5.420;2023-02-22T16:03:02;21.05;;;11.02;;
71769;SDS011;66386;52.122;5.420;2023-02-22T16:05:33;16.98;;;9.60;;
71769;SDS011;66386;52.122;5.420;2023-02-22T16:08:22;20.83;;;11.18;;
71769;SDS011;66386;52.122;5.420;2023-02-22T16:10:58;17.60;;;9.93;;
71769;SDS011;66386;52.122;5.420;2023-02-22T16:13:28;16.88;;;9.85;;
71769;SDS011;66386;52.122;5.420;2023-02-22T16:16:18;22.80;;;10.77;;
71769;SDS011;66386;52.122;5.420;2023-02-22T16:18:51;17.50;;;9.85;;
71769;SDS011;66386;52.122;5.420;2023-02-22T16:21:19;19.25;;;11.23;;
71769;SDS011;66386;52.122;5.420;2023-02-22T16:23:48;20.67;;;10.80;;
71769;SDS011;66386;52.122;5.420;2023-02-22T16:31:22;21.10;;;12.27;;
71769;SDS011;66386;52.122;5.420;2023-02-22T16:33:51;22.95;;;11.80;;
71769;SDS011;66386;52.122;5.420;2023-02-22T16:36:19;20.47;;;12.43;;
71769;SDS011;66386;52.122;5.420;2023-02-22T16:38:51;21.65;;;12.77;;
71769;SDS011;66386;52.122;5.420;2023-02-22T16:41:18;17.70;;;11.30;;
71769;SDS011;66386;52.122;5.420;2023-02-22T16:43:48;22.60;;;12.93;;
71769;SDS011;66386;52.122;5.420;2023-02-22T16:46:17;19.80;;;11.70;;
71769;SDS011;66386;52.122;5.420;2023-02-22T16:48:45;23.27;;;12.37;;
71769;SDS011;66386;52.122;5.420;2023-02-22T16:53:41;24.85;;;13.80;;
71769;SDS011;66386;52.122;5.420;2023-02-22T16:56:10;24.45;;;13.75;;
71769;SDS011;66386;52.122;5.420;2023-02-22T16:58:41;23.35;;;13.27;;
71769;SDS011;66386;52.122;5.420;2023-02-22T17:01:09;24.80;;;13.47;;
71769;SDS011;66386;52.122;5.420;2023-02-22T17:03:38;24.38;;;12.63;;
71769;SDS011;66386;52.122;5.420;2023-02-22T17:06:05;19.38;;;12.85;;
71769;SDS011;66386;52.122;5.420;2023-02-22T17:08:31;23.80;;;12.65;;
71769;SDS011;66386;52.122;5.420;2023-02-22T17:10:57;23.67;;;13.25;;
71769;SDS011;66386;52.122;5.420;2023-02-22T17:13:25;25.60;;;12.60;;
71769;SDS011;66386;52.122;5.420;2023-02-22T17:15:53;24.23;;;13.77;;